Tiempo atmosférico en la estación meteorológica de Degaña, Asturias (1305 m.)



Fecha
DESCASC
Temp. máxima en grados centígrados (hora)
DESCASC
Temp. mínima en grados centígrados (hora)
DESCASC
Temp. media en grados centígrados
DESCASC
Racha de viento máxima en m/sg (hora)
DESCASC
Velocidad máxima media en intervalos de 10 minutos(hora)
DESCASC
Precipitaciones diarias en mm
DESCASC
Precipitaciones de 00:00 a 06:00 en mm
DESCASC
Precipitaciones de 06:00 a 12:00 en mm
DESCASC
Precipitaciones de 12:00 a 18:00 en mm
DESCASC
Precipitaciones de 18:00 a 24:00 en mm
DESCASC
19-01-2020 3 (14:00) -1.4 (21:50) 0.8 18.33 (12:40) 7.78 (11:00) 6.6 4 1 1.6 0
18-01-2020 6.2 (12:10) -0.2 (21:10) 3 11.39 (15:10) 5.28 (08:10) 6.2 0 0 6.2 0
17-01-2020 3.4 (14:20) -0.3 (10:20) 1.6 6.11 (22:30) 4.17 (22:30) 11 4.6 0.2 6.2 0
16-01-2020 7.8 (05:10) 2.6 (00:00) 5.2 15.28 (11:00) 4.72 (02:50) 20 1 3.4 7.2 8.4
15-01-2020 7.1 (23:30) 2.7 (00:00) 4.9 14.72 (00:40) 5.28 (01:00) 13.4 2.8 10.6 0 0
14-01-2020 5.4 (15:50) 3.1 (00:00) 4.3 14.44 (12:20) 5.28 (10:00) 1 0 0 0.2 0.8
13-01-2020 8.8 (14:50) -0.4 (00:00) 4.2 7.5 (22:30) 2.78 (14:10) 0 0 0 0 0
12-01-2020 9.6 (12:30) -1.8 (-00:0) 3.9 3.61 (14:50) 1.67 (03:50) 0 0 0 0 0
11-01-2020 10.4 (14:50) -2.3 (-00:0) 4 2.78 (15:00) 1.39 (12:30) 0 0 0 0 0
10-01-2020 2.8 (14:10) -1.2 (-00:0) 0.8 9.72 (02:40) 4.72 (21:20) 1.6 0 0.2 1.4 0
09-01-2020 10.4 (12:50) 0.4 (00:00) 5.4 12.22 (15:10) 5.56 (15:40) 4.2 0 0 4.2 0
08-01-2020 13.6 (13:00) 2.9 (00:00) 8.3 3.33 (02:10) 2.22 (02:10) 0 0 0 0 0
07-01-2020 14.1 (12:50) 1.8 (00:00) 8 5.83 (02:50) 3.89 (00:40) 0 0 0 0 0
06-01-2020 12.7 (12:00) 0.6 (00:00) 6.6 5.28 (23:20) 2.5 (23:10) 0 0 0 0 0
05-01-2020 13.7 (13:50) 4.2 (00:00) 8.9 7.5 (02:40) 5.28 (02:40) 0 0 0 0 0
04-01-2020 8.5 (15:30) -2 (-00:0) 3.3 7.22 (02:30) 5.28 (02:40) 0 0 0 0 0
03-01-2020 7 (15:30) -0.6 (-00:0) 3.2 3.61 (16:40) 1.67 (21:10) 3.2 0 2.4 0.8 0
02-01-2020 14 (14:40) 0.4 (00:00) 7.2 4.44 (13:20) 1.94 (13:50) 0 0 0 0 0
01-01-2020 17.1 (13:10) 1.7 (00:00) 9.4 3.89 (13:50) 1.94 (02:10) 0 0 0 0 0
31-12-2019 14.4 (13:00) 2.3 (00:00) 8.3 3.33 (15:00) 1.67 (04:30) 0 0 0 0 0
30-12-2019 -- (--) -- (--) -- -- (--) -- (--) -- 0 0 -- 0
29-12-2019 19.6 (13:20) 5.1 (00:00) 12.4 3.61 (13:10) 2.22 (12:50) 0 0 0 0 0
28-12-2019 17.6 (14:20) 5.6 (00:00) 11.6 8.06 (04:50) 6.11 (09:30) 0 0 0 0 0
27-12-2019 13.8 (15:10) 0.5 (00:00) 7.2 7.22 (10:20) 5.56 (10:30) 0 0 0 0 0
26-12-2019 12.1 (13:50) -1.2 (-00:0) 5.5 6.11 (19:20) 3.89 (19:20) 0 0 0 0 0
25-12-2019 11.9 (12:40) 4.9 (00:00) 8.4 9.44 (02:40) 5 (02:40) 0 0 0 0 0
24-12-2019 11.8 (14:40) 4.3 (00:00) 8.1 6.11 (02:10) 2.78 (02:40) 0 0 0 0 0

Gráficas

Temp. máximas Temp. mínimas Temp. medias Precipitaciones Rachas de viento máximas Velocidades máximas media en intervalos de 10 minutos

Datos horarios

Fecha y hora oficial Temperatura (ºC) Velocidad del viento (km/h) Dirección del viento Racha (km/h) Dirección de racha Precipitación (mm) Presión (hPa) Tendencia (hPa) Humedad (%)
2020-01-22 23:00:00 1.6 12 Nordeste 22 Este 0 -- -- 91
2020-01-22 22:00:00 1.5 9 Nordeste 16 Este 0 -- -- 98
2020-01-22 21:00:00 1.2 0 Calma 7 Noroeste 0 -- -- 100
2020-01-22 20:00:00 1.3 0 Calma 3 Sudeste 0 -- -- 99
2020-01-22 19:00:00 1.4 0 Calma 4 Nordeste 0 -- -- 99
2020-01-22 18:00:00 1.8 2 Este 5 Sur 0 -- -- 98
2020-01-22 17:00:00 2.1 0 Calma 4 Norte 0 -- -- 98
2020-01-22 16:00:00 2.6 0 Calma 16 Oeste 0 -- -- 96
2020-01-22 15:00:00 3.6 2 Sur 11 Norte 0 -- -- 91
2020-01-22 14:00:00 3.4 3 Noroeste 20 Nordeste 0 -- -- 90
2020-01-22 13:00:00 3.8 2 Nordeste 9 Oeste 0 -- -- 87
2020-01-22 12:00:00 4 7 Sur 24 Este 0 -- -- 87
2020-01-22 11:00:00 4.2 10 Nordeste 31 Este 0 -- -- 75
2020-01-22 10:00:00 4 10 Este 24 Este 0 -- -- 75
2020-01-22 09:00:00 3.4 10 Este 22 Este 0 -- -- 77
2020-01-22 08:00:00 3.5 8 Nordeste 35 Nordeste 0 -- -- 79
2020-01-22 07:00:00 3.3 12 Este 33 Nordeste 0 -- -- 80
2020-01-22 06:00:00 3.2 10 Este 27 Norte 0 -- -- 80
2020-01-22 05:00:00 3.4 17 Nordeste 40 Este 0 -- -- 78
2020-01-22 04:00:00 0.9 7 Este 20 Norte 0 -- -- 88
2020-01-22 03:00:00 0.1 3 Este 28 Norte 0 -- -- 86
2020-01-22 02:00:00 -0.9 3 Sudoeste 7 Sur 0 -- -- 90
2020-01-22 01:00:00 0 4 Norte 20 Este 0 -- -- 83
2020-01-22 00:00:00 0.1 14 Este 22 Este 0 -- -- 81
2020-01-21 23:00:00 -0.7 9 Nordeste 15 Este 0 -- -- 89
2020-01-21 22:00:00 0.1 6 Norte 14 Nordeste 0 -- -- 87
2020-01-21 21:00:00 -0.8 4 Nordeste 8 Sur 0 -- -- 93
2020-01-21 20:00:00 -0.5 0 Calma 14 Norte 0 -- -- 92
2020-01-21 19:00:00 0.2 9 Nordeste 22 Nordeste 0 -- -- 88
2020-01-21 18:00:00 0.8 6 Nordeste 24 Norte 0 -- -- 85
2020-01-21 17:00:00 0.8 13 Norte 25 Nordeste 0 -- -- 84
2020-01-21 16:00:00 1.6 9 Nordeste 32 Nordeste 0 -- -- 78
2020-01-21 15:00:00 1.7 10 Nordeste 26 Este 0 -- -- 77
2020-01-21 14:00:00 2.4 12 Este 31 Este -- -- -- 71
2020-01-21 13:00:00 2.8 17 Este 31 Este -- -- -- 67
2020-01-21 12:00:00 1.4 3 Este 25 Sudeste -- -- -- 77
2020-01-21 11:00:00 1.1 14 Este 30 Sudeste 0 -- -- 74
2020-01-21 10:00:00 -0.6 5 Sudeste 16 Este 0 -- -- 81
2020-01-21 09:00:00 -0.7 10 Este 17 Nordeste 0 -- -- 79
2020-01-21 08:00:00 -1.3 8 Este 19 Este 0 -- -- 82
2020-01-21 07:00:00 -2.1 10 Este 19 Norte 0 -- -- 86
2020-01-21 06:00:00 -2.9 3 Oeste 17 Nordeste 0 -- -- 86
2020-01-21 05:00:00 -2.6 13 Nordeste 26 Este 0 -- -- 87
2020-01-21 04:00:00 -2.6 9 Este 22 Este 0 -- -- 83
2020-01-21 03:00:00 -3.1 10 Este 22 Este 0 -- -- 85
2020-01-21 02:00:00 -2.6 8 Nordeste 21 Este 0 -- -- 82
2020-01-21 01:00:00 -2.5 12 Nordeste 18 Este 0 -- -- 81
2020-01-21 00:00:00 -2.4 9 Nordeste 22 Este 0 -- -- 80
2020-01-20 23:00:00 -1.9 16 Este 25 Este 0 -- -- 76
2020-01-20 22:00:00 -2 18 Este 26 Este 0 -- -- 75
2020-01-20 21:00:00 -2.5 7 Nordeste 28 Nordeste 0 -- -- 73
2020-01-20 20:00:00 -2.9 2 Sudeste 28 Nordeste 0 -- -- 79
2020-01-20 19:00:00 -2.2 16 Norte 33 Norte 0 -- -- 69
2020-01-20 18:00:00 -1.7 18 Nordeste 36 Norte 0 -- -- 68
2020-01-20 17:00:00 -0.8 14 Nordeste 28 Nordeste 0 -- -- 65
2020-01-20 16:00:00 -0.2 13 Este 45 Este 0 -- -- 64
2020-01-20 15:00:00 0 17 Este 41 Este 0.4 -- -- 67
2020-01-20 14:00:00 0.1 16 Este 46 Sur 0 -- -- 59
2020-01-20 13:00:00 0 24 Sudeste 78 Norte 0 -- -- 54
2020-01-20 12:00:00 -0.8 23 Este 64 Norte 0 -- -- 60
2020-01-20 11:00:00 -1.5 15 Este 53 Este 0 -- -- 67
2020-01-20 10:00:00 -1.6 22 Nordeste 56 Este 0 -- -- 66
2020-01-20 09:00:00 -2.1 19 Este 54 Este 0 -- -- 63
2020-01-20 08:00:00 -1.8 19 Este 55 Este 0 -- -- 63
2020-01-20 07:00:00 -1.8 17 Nordeste 36 Este 0 -- -- 67
2020-01-20 06:00:00 -1.7 8 Este 42 Este 0 -- -- 69
2020-01-20 05:00:00 -1.7 9 Este 26 Este 0 -- -- 69
2020-01-20 04:00:00 -1.7 9 Este 28 Nordeste 0 -- -- 74
2020-01-20 03:00:00 -1.9 8 Este 22 Este 0 -- -- 64
2020-01-20 02:00:00 -1.7 5 Este 26 Sudeste 0 -- -- 64
2020-01-20 01:00:00 -1.3 6 Este 18 Sudeste 0 -- -- 66
2020-01-20 00:00:00 -1.1 5 Sur 24 Sudeste 0 -- -- 66
2020-01-19 23:00:00 -1.4 3 Sudeste 18 Sur 0 -- -- 68
2020-01-19 22:00:00 -1.4 3 Sudoeste 32 Nordeste 0 -- -- 64
2020-01-19 21:00:00 -0.9 15 Este 58 Norte 0 -- -- 52
2020-01-19 20:00:00 -1.1 14 Norte 44 Norte 0 -- -- 56
2020-01-19 19:00:00 -1 11 Norte 37 Norte 0 -- -- 57
2020-01-19 18:00:00 -0.3 3 Noroeste 36 Este 0 -- -- 60
2020-01-19 17:00:00 0 11 Norte 39 Norte 0 -- -- 61
2020-01-19 16:00:00 0.9 15 Nordeste 42 Este 0.2 -- -- 66
2020-01-19 15:00:00 2 14 Este 53 Nordeste 0.2 -- -- 50
2020-01-19 14:00:00 3 17 Nordeste 54 Nordeste 0.8 -- -- 40
2020-01-19 13:00:00 1.1 21 Norte 66 Este 0.4 -- -- 66
2020-01-19 12:00:00 1.3 28 Nordeste 60 Norte 0.6 -- -- 62
2020-01-19 11:00:00 0.9 28 Nordeste 66 Este 0.2 -- -- 62
2020-01-19 10:00:00 0.1 20 Este 60 Nordeste 0 -- -- 71
2020-01-19 09:00:00 0.2 23 Nordeste 59 Nordeste 0 -- -- 77
2020-01-19 08:00:00 0.2 21 Nordeste 52 Este 0 -- -- 75
2020-01-19 07:00:00 0.7 14 Este 60 Nordeste 0.2 -- -- 90
2020-01-19 06:00:00 1.2 9 Sudoeste 60 Este 1.4 -- -- 90
2020-01-19 05:00:00 2.1 17 Noroeste 52 Noroeste 1.8 -- -- 91
2020-01-19 04:00:00 2 9 Oeste 51 Norte 0.8 -- -- 93
2020-01-19 03:00:00 1.1 6 Este 19 Este 0 -- -- 100
2020-01-19 02:00:00 0 0 Calma -- -- 0 -- -- 100
2020-01-19 01:00:00 0 0 Calma -- -- 0 -- -- 100
2020-01-19 00:00:00 -0.1 0 Calma -- -- 0 -- -- 100
2020-01-18 23:00:00 -0.1 0 Calma -- -- 0 -- -- 99
2020-01-18 22:00:00 -0.1 0 Calma -- -- 0 -- -- 99
2020-01-18 21:00:00 -0.1 0 Calma -- -- 0 -- -- 99
2020-01-18 20:00:00 0.3 0 Calma 8 Sudoeste 0 -- -- 99
2020-01-18 19:00:00 0.3 3 Norte 12 Oeste 0 -- -- 98
2020-01-18 18:00:00 1.4 3 Norte 24 Sudoeste 0 -- -- 96
2020-01-18 17:00:00 1.6 5 Noroeste 27 Noroeste 0.4 -- -- 93
2020-01-18 16:00:00 3.4 13 Noroeste 41 Oeste 3.2 -- -- 91
2020-01-18 15:00:00 4.3 8 Noroeste 22 Noroeste 2.6 -- -- 93
2020-01-18 14:00:00 5.3 5 Noroeste 14 Noroeste 0 -- -- 91
2020-01-18 13:00:00 5.4 5 Nordeste 37 Oeste 0 -- -- 90
2020-01-18 12:00:00 6 11 Noroeste 30 Noroeste 0 -- -- 87
2020-01-18 11:00:00 5 7 Sur 40 Sur 0 -- -- 88
2020-01-18 10:00:00 3.2 5 Este 35 Sur 0 -- -- 91
2020-01-18 09:00:00 2.5 7 Norte 33 Este 0 -- -- 92
2020-01-18 08:00:00 1.5 17 Nordeste 28 Nordeste 0 -- -- 88
2020-01-18 07:00:00 1.8 6 Sur 21 Oeste 0 -- -- 86
2020-01-18 06:00:00 1.3 9 Sudeste 25 Nordeste 0 -- -- 80
2020-01-18 05:00:00 1.8 5 Noroeste 12 Norte 0 -- -- 68
2020-01-18 04:00:00 1.2 3 Noroeste 21 Noroeste 0 -- -- 74
2020-01-18 03:00:00 1.8 8 Noroeste 35 Oeste 0 -- -- 60
2020-01-18 02:00:00 0.9 3 Este 10 Sudeste 0 -- -- 74
2020-01-18 01:00:00 0.4 3 Norte 14 Este 0 -- -- 87
2020-01-18 00:00:00 0.1 3 Norte 5 Norte 0 -- -- 91
2020-01-17 23:00:00 0.7 3 Sudoeste 22 Este 0 -- -- 84
2020-01-17 22:00:00 0.6 8 Nordeste 17 Este 0 -- -- 89
2020-01-17 21:00:00 0.3 5 Nordeste 12 Nordeste 0 -- -- 93
2020-01-17 20:00:00 -0.1 0 Calma 6 Este 0 -- -- 97
2020-01-17 19:00:00 -0.2 0 Calma 3 Norte 0 -- -- 98
2020-01-17 18:00:00 0.9 2 Noroeste 5 Este 0 -- -- 95
2020-01-17 17:00:00 1.9 0 Calma 8 Noroeste 0 -- -- 88
2020-01-17 16:00:00 2.2 0 Calma 12 Noroeste 0 -- -- 86
2020-01-17 15:00:00 2.4 2 Norte 14 Sudeste 0 -- -- 85
2020-01-17 14:00:00 3.2 4 Sudeste 13 Sur 3.8 -- -- 88
2020-01-17 13:00:00 0.7 0 Calma 2 Este 2.4 -- -- 95
2020-01-17 12:00:00 -0.1 0 Calma -- -- 0.2 -- -- 93
2020-01-17 11:00:00 -0.2 0 Calma -- -- 0 -- -- 94
2020-01-17 10:00:00 -0.2 0 Calma -- -- 0 -- -- 99
2020-01-17 09:00:00 -0.1 0 Calma -- -- 0 -- -- 100
2020-01-17 08:00:00 0 0 Calma 2 Noroeste 0 -- -- 99
2020-01-17 07:00:00 0.1 2 Noroeste 12 Noroeste 0 -- -- 99
2020-01-17 06:00:00 0.2 3 Noroeste 18 Noroeste 0 -- -- 99
2020-01-17 05:00:00 0.3 2 Noroeste 17 Noroeste 0 -- -- 99
2020-01-17 04:00:00 1.1 5 Noroeste 17 Noroeste 0.2 -- -- 100
2020-01-17 03:00:00 1.1 3 Noroeste 13 Noroeste 1.8 -- -- 99
2020-01-17 02:00:00 1.4 3 Noroeste 15 Oeste 1.2 -- -- 97
2020-01-17 01:00:00 1.7 5 Noroeste 18 Noroeste 1.4 -- -- 97
2020-01-17 00:00:00 2.6 6 Noroeste 19 Noroeste 0 -- -- 95
2020-01-16 23:00:00 2.9 3 Oeste 15 Norte 1 -- -- 96
2020-01-16 22:00:00 3.7 3 Norte 15 Norte 1 -- -- 96
2020-01-16 21:00:00 4.1 8 Nordeste 35 Sur 2.4 -- -- 95
2020-01-16 20:00:00 4.5 11 Nordeste 39 Norte 2.6 -- -- 93
2020-01-16 19:00:00 4.7 7 Sudeste 39 Sur 1.4 -- -- 94
2020-01-16 18:00:00 4.5 8 Sur 45 Sudoeste 4.2 -- -- 94
2020-01-16 17:00:00 5 12 Sur 29 Sudeste 2.8 -- -- 89
2020-01-16 16:00:00 6.3 15 Nordeste 41 Sudoeste 0 -- -- 80
2020-01-16 15:00:00 6.5 15 Norte 35 Nordeste 0 -- -- 81
2020-01-16 14:00:00 6.6 8 Nordeste 32 Norte 0 -- -- 83
2020-01-16 13:00:00 6.9 13 Norte 40 Sur 0.2 -- -- 82
2020-01-16 12:00:00 6.7 15 Sudeste 46 Sur 0 -- -- 86
2020-01-16 11:00:00 6.1 14 Sudeste 55 Sudeste 0.4 -- -- 89
2020-01-16 10:00:00 6.5 11 Nordeste 48 Noroeste 0 -- -- 83
2020-01-16 09:00:00 6.4 9 Nordeste 33 Sur 0 -- -- 87
2020-01-16 08:00:00 6.5 12 Nordeste 47 Noroeste 0 -- -- 90
2020-01-16 07:00:00 6.2 8 Nordeste 44 Sudeste 3 -- -- 94
2020-01-16 06:00:00 6.9 10 Noroeste 43 Noroeste 1 -- -- 85
2020-01-16 05:00:00 7.7 13 Noroeste 40 Oeste 0 -- -- 71
2020-01-16 04:00:00 7.2 12 Este 50 Sudeste 0 -- -- 76
2020-01-16 03:00:00 6.7 12 Sudeste 48 Sudeste 0 -- -- 79
2020-01-16 02:00:00 7.2 10 Nordeste 40 Sur 0 -- -- 76
2020-01-16 01:00:00 7.3 8 Sur 32 Sur 0 -- -- 80
2020-01-16 00:00:00 7 12 Oeste 42 Oeste 0 -- -- 77
2020-01-15 23:00:00 7 8 Noroeste 34 Sudoeste 0 -- -- 75
2020-01-15 22:00:00 6.5 12 Oeste 30 Noroeste 0 -- -- 74
2020-01-15 21:00:00 5.5 11 Norte 40 Norte 0 -- -- 76
2020-01-15 20:00:00 5.3 7 Este 28 Noroeste 0 -- -- 79
2020-01-15 19:00:00 5.3 6 Noroeste 24 Sudoeste 0 -- -- 81
2020-01-15 18:00:00 5.4 4 Noroeste 18 Noroeste 0 -- -- 81
2020-01-15 17:00:00 5.9 5 Sur 23 Sur 0 -- -- 81
2020-01-15 16:00:00 6.4 8 Noroeste 27 Noroeste 0 -- -- 77
2020-01-15 15:00:00 5.6 5 Norte 20 Sur 0 -- -- 83
2020-01-15 14:00:00 4.9 4 Este 18 Sur 0 -- -- 88
2020-01-15 13:00:00 5 4 Sudeste 17 Sur 0 -- -- 93
2020-01-15 12:00:00 4 2 Sudeste 11 Sudeste 0 -- -- 97
2020-01-15 11:00:00 3.1 3 Este 9 Este 0 -- -- 97
2020-01-15 10:00:00 2.8 4 Nordeste 17 Este 1.8 -- -- 96
2020-01-15 09:00:00 3.8 6 Noroeste 12 Norte 1.2 -- -- 96
2020-01-15 08:00:00 4.3 5 Norte 29 Sudoeste 3.2 -- -- 95
2020-01-15 07:00:00 4.5 5 Nordeste 33 Norte 4.4 -- -- 95
2020-01-15 06:00:00 5.4 10 Nordeste 47 Sur 0 -- -- 88
2020-01-15 05:00:00 5.4 15 Nordeste 43 Sudeste 0.2 -- -- 86
2020-01-15 04:00:00 4.8 10 Nordeste 40 Oeste 1.6 -- -- 92
2020-01-15 03:00:00 4.7 8 Norte 51 Noroeste 0.4 -- -- 91
2020-01-15 02:00:00 4.5 9 Este 43 Sur 0.6 -- -- 91
2020-01-15 01:00:00 4.7 19 Sudeste 53 Sur 0 -- -- 87
2020-01-15 00:00:00 4.5 8 Norte 43 Sur 0 -- -- 90
2020-01-14 23:00:00 4.3 9 Nordeste 33 Sur 0.4 -- -- 90
2020-01-14 22:00:00 4.2 10 Nordeste 30 Sudoeste 0.2 -- -- 88
2020-01-14 21:00:00 4.8 10 Nordeste 35 Noroeste 0 -- -- 82
2020-01-14 20:00:00 4.3 10 Nordeste 36 Sur 0 -- -- 86
2020-01-14 19:00:00 4.7 15 Nordeste 37 Norte 0.2 -- -- 82
2020-01-14 18:00:00 4.3 9 Nordeste 30 Sur 0.2 -- -- 90
2020-01-14 17:00:00 4.7 7 Sudeste 28 Sudeste 0 -- -- 84
2020-01-14 16:00:00 5.2 10 Este 43 Sur 0 -- -- 82
2020-01-14 15:00:00 4.6 11 Nordeste 38 Sur 0 -- -- 82
2020-01-14 14:00:00 4.5 10 Nordeste 33 Sudeste 0 -- -- 79
2020-01-14 13:00:00 4 11 Noroeste 52 Noroeste 0 -- -- 80
2020-01-14 12:00:00 3.9 16 Noroeste 44 Noroeste 0 -- -- 83
2020-01-14 11:00:00 3.6 14 Noroeste 39 Noroeste 0 -- -- 85
2020-01-14 10:00:00 3.4 19 Noroeste 46 Oeste 0 -- -- 88
2020-01-14 09:00:00 3.4 13 Noroeste 40 Oeste 0 -- -- 93
2020-01-14 08:00:00 3.2 15 Noroeste 34 Noroeste 0 -- -- 94
2020-01-14 07:00:00 3.1 7 Noroeste 33 Sudeste 0 -- -- 94
2020-01-14 06:00:00 3.5 5 Nordeste 36 Sur 0 -- -- 90
2020-01-14 05:00:00 3.8 8 Norte 24 Sudeste 0 -- -- 86
2020-01-14 04:00:00 3.6 7 Norte 35 Sudeste 0 -- -- 87
2020-01-14 03:00:00 3.7 9 Norte 27 Nordeste 0 -- -- 86
2020-01-14 02:00:00 3.9 7 Nordeste 27 Sudeste 0 -- -- 83
2020-01-14 01:00:00 3.7 8 Nordeste 30 Sudeste 0 -- -- 83
2020-01-14 00:00:00 3.3 8 Nordeste 22 Nordeste 0 -- -- 84
2020-01-13 23:00:00 3.3 6 Nordeste 27 Sur 0 -- -- 83
2020-01-13 22:00:00 3.8 8 Noroeste 19 Noroeste 0 -- -- 77
2020-01-13 21:00:00 3.9 6 Noroeste 15 Sur 0 -- -- 75
2020-01-13 20:00:00 3.7 0 Calma 10 Sudoeste 0 -- -- 66
2020-01-13 19:00:00 3.7 4 Norte 23 Sur 0 -- -- 59
2020-01-13 18:00:00 4.2 4 Sur 13 Sudeste 0 -- -- 50
2020-01-13 17:00:00 5.7 3 Sur 13 Sur 0 -- -- 40
2020-01-13 16:00:00 6.7 3 Oeste 19 Sur 0 -- -- 36
2020-01-13 15:00:00 8.6 6 Norte 22 Sur 0 -- -- 35
2020-01-13 14:00:00 8.5 9 Sur 20 Sur 0 -- -- 44
2020-01-13 13:00:00 8.3 7 Sudeste 22 Sur 0 -- -- 42
2020-01-13 12:00:00 7.3 7 Sudeste 17 Sudeste 0 -- -- 50
2020-01-13 11:00:00 3.9 3 Sudoeste 6 Norte 0 -- -- 67
2020-01-13 10:00:00 1.7 0 Calma 5 Sur 0 -- -- 84
2020-01-13 09:00:00 1.7 2 Noroeste 6 Sudeste 0 -- -- 87
2020-01-13 08:00:00 3 3 Este 9 Este 0 -- -- 78
2020-01-13 07:00:00 2.3 3 Noroeste 6 Noroeste 0 -- -- 84
2020-01-13 06:00:00 3.3 0 Calma 5 Sudeste 0 -- -- 80
2020-01-13 05:00:00 3.3 0 Calma 6 Oeste 0 -- -- 70
2020-01-13 04:00:00 3.2 2 Noroeste 5 Oeste 0 -- -- 68
2020-01-13 03:00:00 2.1 2 Oeste 6 Noroeste 0 -- -- 76
2020-01-13 02:00:00 -0.4 3 Oeste 6 Noroeste 0 -- -- 78
2020-01-13 01:00:00 -0.1 2 Noroeste 6 Noroeste 0 -- -- 72
2020-01-13 00:00:00 0 3 Noroeste 6 Noroeste 0 -- -- 70
2020-01-12 23:00:00 0.6 3 Noroeste 5 Noroeste 0 -- -- 69
2020-01-12 22:00:00 0.6 4 Noroeste 6 Noroeste 0 -- -- 69
2020-01-12 21:00:00 1.1 3 Noroeste 6 Noroeste 0 -- -- 68
2020-01-12 20:00:00 1.4 2 Noroeste 4 Noroeste 0 -- -- 62
2020-01-12 19:00:00 1.6 3 Noroeste 5 Noroeste 0 -- -- 58
2020-01-12 18:00:00 4.2 2 Oeste 6 Sudoeste 0 -- -- 50
2020-01-12 17:00:00 7 3 Sudoeste 12 Sur 0 -- -- 35
2020-01-12 16:00:00 8.8 3 Sur 13 Sur 0 -- -- 32
2020-01-12 15:00:00 8.9 3 Oeste 13 Sudoeste 0 -- -- 35
2020-01-12 14:00:00 8.5 3 Oeste 9 Sudeste 0 -- -- 31
2020-01-12 13:00:00 8.2 3 Oeste 10 Sudoeste 0 -- -- 27
2020-01-12 12:00:00 8.7 5 Sur 8 Sudeste 0 -- -- 30
2020-01-12 11:00:00 5.4 3 Sudeste 8 Sur 0 -- -- 28
2020-01-12 10:00:00 -0.2 2 Noroeste 6 Noroeste 0 -- -- 51
2020-01-12 09:00:00 -1.5 4 Noroeste 7 Noroeste 0 -- -- 53
2020-01-12 08:00:00 -1.8 5 Noroeste 7 Noroeste 0 -- -- 52
2020-01-12 07:00:00 -1.5 6 Noroeste 9 Noroeste 0 -- -- 55
2020-01-12 06:00:00 -1.2 5 Noroeste 7 Noroeste 0 -- -- 54
2020-01-12 05:00:00 -0.6 2 Noroeste 8 Oeste 0 -- -- 48
2020-01-12 04:00:00 -0.7 6 Noroeste 9 Noroeste 0 -- -- 54
2020-01-12 03:00:00 0 4 Noroeste 8 Noroeste 0 -- -- 52
2020-01-12 02:00:00 -0.5 3 Noroeste 5 Noroeste 0 -- -- 63
2020-01-12 01:00:00 -0.6 4 Noroeste 6 Noroeste 0 -- -- 69
2020-01-12 00:00:00 -0.1 3 Noroeste 5 Noroeste 0 -- -- 66
2020-01-11 23:00:00 0.1 2 Noroeste 5 Oeste 0 -- -- 63
2020-01-11 22:00:00 0.1 3 Noroeste 5 Noroeste 0 -- -- 76
2020-01-11 21:00:00 0.6 2 Noroeste 5 Noroeste 0 -- -- 77
2020-01-11 20:00:00 1.5 2 Oeste 5 Noroeste 0 -- -- 76
2020-01-11 19:00:00 2.6 2 Noroeste 4 Noroeste 0 -- -- 71
2020-01-11 18:00:00 4.3 2 Noroeste 7 Sur 0 -- -- 66
2020-01-11 17:00:00 7.5 0 Calma 6 Sudoeste 0 -- -- 60
2020-01-11 16:00:00 9.8 3 Sur 10 Sudoeste 0 -- -- 49
2020-01-11 15:00:00 10.1 4 Sur 10 Sur 0 -- -- 41
2020-01-11 14:00:00 8.8 2 Sur 5 Sur 0 -- -- 39
2020-01-11 13:00:00 9.5 4 Sur 10 Sudeste 0 -- -- 32
2020-01-11 12:00:00 9.2 3 Sur 9 Sudeste 0 -- -- 38
2020-01-11 11:00:00 6.1 2 Sudeste 5 Sur 0 -- -- 47
2020-01-11 10:00:00 0.1 0 Calma 7 Noroeste 0 -- -- 69
2020-01-11 09:00:00 -1.8 3 Noroeste 6 Noroeste 0 -- -- 72
2020-01-11 08:00:00 -2 3 Oeste 5 Noroeste 0 -- -- 82
2020-01-11 07:00:00 -2.2 0 Calma 6 Noroeste 0 -- -- 87
2020-01-11 06:00:00 -2.3 3 Noroeste 5 Noroeste 0 -- -- 87
2020-01-11 05:00:00 -2 3 Noroeste 6 Noroeste 0 -- -- 87
2020-01-11 04:00:00 -2 2 Noroeste 6 Noroeste 0 -- -- 88
2020-01-11 03:00:00 -2 3 Noroeste 5 Noroeste 0 -- -- 89
2020-01-11 02:00:00 -1.9 4 Noroeste 6 Noroeste 0 -- -- 92
2020-01-11 01:00:00 -1.6 3 Noroeste 6 Noroeste 0 -- -- 94
2020-01-11 00:00:00 -1.2 2 Noroeste 17 Este 0 -- -- 90
2020-01-10 23:00:00 -0.3 6 Nordeste 19 Este 0 -- -- 88
2020-01-10 22:00:00 1.1 10 Nordeste 24 Este 0 -- -- 87
2020-01-10 21:00:00 1.4 15 Este 22 Este 0 -- -- 86
2020-01-10 20:00:00 0.8 7 Nordeste 12 Nordeste 0 -- -- 88
2020-01-10 19:00:00 -1 2 Noroeste 4 Noroeste 0 -- -- 96
2020-01-10 18:00:00 0.9 0 Calma 8 Sur 0 -- -- 91
2020-01-10 17:00:00 2 3 Sur 17 Nordeste 0 -- -- 88
2020-01-10 16:00:00 2.7 6 Noroeste 24 Norte 0 -- -- 75
2020-01-10 15:00:00 2.2 12 Norte 19 Norte 0 -- -- 80
2020-01-10 14:00:00 2.5 4 Oeste 16 Oeste 0 -- -- 86
2020-01-10 13:00:00 2.2 5 Noroeste 18 Norte 1.4 -- -- 82
2020-01-10 12:00:00 1.3 5 Sur 12 Sudeste 0.2 -- -- 97
2020-01-10 11:00:00 0.1 3 Sur 13 Sur 0 -- -- 96
2020-01-10 10:00:00 -0.3 2 Sur 6 Nordeste 0 -- -- 98
2020-01-10 09:00:00 -0.2 2 Sudeste 16 Sudoeste 0 -- -- 93
2020-01-10 08:00:00 0 3 Noroeste 17 Nordeste 0 -- -- 88
2020-01-10 07:00:00 -0.1 6 Sudeste 21 Sudoeste 0 -- -- 91
2020-01-10 06:00:00 -0.2 4 Oeste 23 Sudoeste 0 -- -- 95
2020-01-10 05:00:00 0 8 Sudoeste 26 Oeste 0 -- -- 93
2020-01-10 04:00:00 0.2 4 Noroeste 29 Noroeste 0 -- -- 89
2020-01-10 03:00:00 0.3 12 Oeste 35 Noroeste 0 -- -- 87
2020-01-10 02:00:00 0.2 12 Oeste 32 Noroeste 0 -- -- 85
2020-01-10 01:00:00 0.6 7 Oeste 29 Noroeste 0 -- -- 93
2020-01-10 00:00:00 0.5 6 Oeste 20 Noroeste 0 -- -- 96
2020-01-09 23:00:00 0.6 8 Noroeste 30 Noroeste 0 -- -- 91
2020-01-09 22:00:00 0.6 7 Oeste 30 Oeste 0 -- -- 94
2020-01-09 21:00:00 0.9 3 Oeste 21 Noroeste 0 -- -- 93
2020-01-09 20:00:00 1.1 12 Oeste 28 Noroeste 0 -- -- 84
2020-01-09 19:00:00 1.9 7 Noroeste 28 Oeste 0 -- -- 87
2020-01-09 18:00:00 2.3 6 Noroeste 28 Oeste 0.8 -- -- 90
2020-01-09 17:00:00 3.1 7 Noroeste 27 Noroeste 1.6 -- -- 93
2020-01-09 16:00:00 4.9 14 Noroeste 44 Noroeste 1.8 -- -- 89
2020-01-09 15:00:00 8.6 9 Norte 34 Sur 0 -- -- 73
2020-01-09 14:00:00 8.4 6 Nordeste 25 Sudeste 0 -- -- 79
2020-01-09 13:00:00 10.3 10 Norte 29 Noroeste 0 -- -- 74
2020-01-09 12:00:00 9 8 Nordeste 25 Sudeste 0 -- -- 80
2020-01-09 11:00:00 8.2 5 Noroeste 18 Sur 0 -- -- 87
2020-01-09 10:00:00 6.9 4 Norte 13 Noroeste 0 -- -- 90
2020-01-09 09:00:00 4.8 2 Nordeste 10 Noroeste 0 -- -- 91
2020-01-09 08:00:00 5.8 2 Oeste 9 Oeste 0 -- -- 93
2020-01-09 07:00:00 6.5 0 Calma 12 Oeste 0 -- -- 89
2020-01-09 06:00:00 6.8 2 Noroeste 7 Noroeste 0 -- -- 93
2020-01-09 05:00:00 6.5 0 Calma 6 Noroeste 0 -- -- 90
2020-01-09 04:00:00 6.3 0 Calma 5 Noroeste 0 -- -- 88
2020-01-09 03:00:00 6.4 2 Oeste 5 Noroeste 0 -- -- 87
2020-01-09 02:00:00 6.2 0 Calma 4 Noroeste 0 -- -- 89
2020-01-09 01:00:00 5.3 0 Calma 7 Este 0 -- -- 90
2020-01-09 00:00:00 5.9 0 Calma 2 Sur 0 -- -- 88
2020-01-08 23:00:00 4.6 0 Calma 5 Noroeste 0 -- -- 94
2020-01-08 22:00:00 3.9 0 Calma 6 Noroeste 0 -- -- 94
2020-01-08 21:00:00 4.2 2 Noroeste 6 Oeste 0 -- -- 93
2020-01-08 20:00:00 4.6 3 Noroeste 6 Noroeste 0 -- -- 89
2020-01-08 19:00:00 5.5 3 Noroeste 4 Noroeste 0 -- -- 81
2020-01-08 18:00:00 8 0 Calma 6 Sudoeste 0 -- -- 76
2020-01-08 17:00:00 10.2 3 Noroeste 11 Sudoeste 0 -- -- 69
2020-01-08 16:00:00 11 4 Noroeste 11 Noroeste 0 -- -- 64
2020-01-08 15:00:00 12.3 5 Sudoeste 12 Sudeste 0 -- -- 58
2020-01-08 14:00:00 12.8 5 Sur 12 Sudoeste 0 -- -- 47
2020-01-08 13:00:00 13.6 5 Sur 12 Sur 0 -- -- 37
2020-01-08 12:00:00 12.9 6 Sur 10 Sudeste 0 -- -- 41
2020-01-08 11:00:00 10.2 4 Oeste 10 Oeste 0 -- -- 40
2020-01-08 10:00:00 5.8 0 Calma 5 Noroeste 0 -- -- 52
2020-01-08 09:00:00 4.2 3 Noroeste 5 Noroeste 0 -- -- 51
2020-01-08 08:00:00 3.7 3 Noroeste 6 Noroeste 0 -- -- 48
2020-01-08 07:00:00 3.3 3 Noroeste 7 Oeste 0 -- -- 52
2020-01-08 06:00:00 4.6 5 Noroeste 6 Noroeste 0 -- -- 55
2020-01-08 05:00:00 6.4 0 Calma 3 Noroeste 0 -- -- 45
2020-01-08 04:00:00 6 2 Noroeste 3 Noroeste 0 -- -- 40
2020-01-08 03:00:00 4.6 0 Calma 12 Noroeste 0 -- -- 46
2020-01-08 02:00:00 3.7 7 Noroeste 11 Noroeste 0 -- -- 50
2020-01-08 01:00:00 5.8 2 Noroeste 4 Noroeste 0 -- -- 40
2020-01-08 00:00:00 6.1 0 Calma 5 Noroeste 0 -- -- 45
2020-01-07 23:00:00 5.3 3 Noroeste 6 Noroeste 0 -- -- 45
2020-01-07 22:00:00 4.2 3 Noroeste 4 Noroeste 0 -- -- 45
2020-01-07 21:00:00 4.1 4 Noroeste 6 Norte 0 -- -- 46
2020-01-07 20:00:00 4.9 3 Noroeste 6 Noroeste 0 -- -- 46
2020-01-07 19:00:00 5.7 3 Noroeste 5 Noroeste 0 -- -- 44
2020-01-07 18:00:00 7.4 0 Calma 6 Oeste 0 -- -- 38
2020-01-07 17:00:00 10.6 3 Noroeste 9 Noroeste 0 -- -- 30
2020-01-07 16:00:00 12.1 4 Noroeste 14 Noroeste 0 -- -- 24
2020-01-07 15:00:00 12.6 4 Noroeste 13 Noroeste 0 -- -- 24
2020-01-07 14:00:00 13.2 3 Oeste 12 Sudoeste 0 -- -- 21
2020-01-07 13:00:00 14.1 5 Sur 10 Sur 0 -- -- 21
2020-01-07 12:00:00 13.1 4 Sur 9 Sur 0 -- -- 23
2020-01-07 11:00:00 8.9 0 Calma 4 Sudeste 0 -- -- 27
2020-01-07 10:00:00 4.3 0 Calma 5 Noroeste 0 -- -- 38
2020-01-07 09:00:00 2.6 4 Noroeste 7 Noroeste 0 -- -- 41
2020-01-07 08:00:00 2.1 3 Noroeste 6 Noroeste 0 -- -- 45
2020-01-07 07:00:00 1.9 4 Noroeste 7 Noroeste 0 -- -- 45
2020-01-07 06:00:00 1.8 4 Noroeste 6 Noroeste 0 -- -- 50
2020-01-07 05:00:00 2.1 3 Noroeste 15 Norte 0 -- -- 47
2020-01-07 04:00:00 2.5 3 Noroeste 14 Nordeste 0 -- -- 46
2020-01-07 03:00:00 5.3 6 Nordeste 21 Nordeste 0 -- -- 34
2020-01-07 02:00:00 4.9 7 Nordeste 18 Nordeste 0 -- -- 33
2020-01-07 01:00:00 6 5 Este 21 Este 0 -- -- 36
2020-01-07 00:00:00 4.1 8 Nordeste 19 Este 0 -- -- 36
2020-01-06 23:00:00 1.8 4 Noroeste 8 Este 0 -- -- 47
2020-01-06 22:00:00 1 3 Noroeste 6 Noroeste 0 -- -- 48
2020-01-06 21:00:00 0.6 4 Noroeste 6 Noroeste 0 -- -- 58
2020-01-06 20:00:00 1.2 2 Noroeste 8 Noroeste 0 -- -- 65
2020-01-06 19:00:00 2.2 5 Oeste 9 Oeste 0 -- -- 54
2020-01-06 18:00:00 3.9 0 Calma 5 Sudoeste 0 -- -- 55
2020-01-06 17:00:00 6.3 2 Sur 7 Oeste 0 -- -- 49
2020-01-06 16:00:00 7.7 4 Sudoeste 13 Noroeste 0 -- -- 43
2020-01-06 15:00:00 8.2 3 Noroeste 9 Sudoeste 0 -- -- 41
2020-01-06 14:00:00 8.7 2 Oeste 9 Oeste 0 -- -- 37
2020-01-06 13:00:00 9.5 3 Sudeste 9 Sur 0 -- -- 37
2020-01-06 12:00:00 12.7 5 Sur 12 Este 0 -- -- 27
2020-01-06 11:00:00 9.8 3 Sur 5 Sur 0 -- -- 34
2020-01-06 10:00:00 3.6 0 Calma 6 Noroeste 0 -- -- 42